createdAt,value
2023-02-15T00:00:01.012Z,20.63
2023-02-15T00:02:27.910Z,20.60
2023-02-15T00:04:57.040Z,20.27
2023-02-15T00:07:23.899Z,20.85
2023-02-15T00:09:50.867Z,20.42
2023-02-15T00:12:18.040Z,20.23
2023-02-15T00:14:45.109Z,20.90
2023-02-15T00:17:11.969Z,21.65
2023-02-15T00:19:38.798Z,20.92
2023-02-15T00:22:05.865Z,21.17
2023-02-15T00:24:33.445Z,21.38
2023-02-15T00:27:00.300Z,21.20
2023-02-15T00:29:27.772Z,21.60
2023-02-15T00:31:54.775Z,20.15
2023-02-15T00:34:27.721Z,21.52
2023-02-15T00:36:55.158Z,20.73
2023-02-15T00:39:23.001Z,20.30
2023-02-15T00:41:49.954Z,21.58
2023-02-15T00:44:18.514Z,20.95
2023-02-15T00:46:45.565Z,21.55
2023-02-15T00:49:12.919Z,20.27
2023-02-15T00:51:40.507Z,21.08
2023-02-15T00:54:07.890Z,22.27
2023-02-15T00:56:34.959Z,20.55
2023-02-15T00:59:01.870Z,21.05
2023-02-15T01:01:28.875Z,21.45
2023-02-15T01:03:56.160Z,20.60
2023-02-15T01:06:23.079Z,21.80
2023-02-15T01:08:49.998Z,22.10
2023-02-15T01:11:24.497Z,21.38
2023-02-15T01:13:58.384Z,20.40
2023-02-15T01:16:28.745Z,20.08
2023-02-15T01:18:56.281Z,20.65
2023-02-15T01:21:26.013Z,21.50
2023-02-15T01:23:53.283Z,21.17
2023-02-15T01:26:21.346Z,19.55
2023-02-15T01:28:48.207Z,22.27
2023-02-15T01:31:18.688Z,21.40
2023-02-15T01:33:47.750Z,21.85
2023-02-15T01:36:15.622Z,21.10
2023-02-15T01:38:42.903Z,21.42
2023-02-15T01:41:27.272Z,21.48
2023-02-15T01:43:59.987Z,21.38
2023-02-15T01:49:17.545Z,19.92
2023-02-15T01:51:49.200Z,20.42
2023-02-15T01:54:28.718Z,20.40
2023-02-15T01:57:05.960Z,21.90
2023-02-15T01:59:36.228Z,20.88
2023-02-15T02:02:08.153Z,20.75
2023-02-15T02:04:56.571Z,21.38
2023-02-15T02:07:32.825Z,21.77
2023-02-15T02:10:01.137Z,21.55
2023-02-15T02:12:30.796Z,21.58
2023-02-15T02:14:58.968Z,20.20
2023-02-15T02:17:29.272Z,20.67
2023-02-15T02:20:14.823Z,19.98
2023-02-15T02:23:26.440Z,22.15
2023-02-15T02:26:41.662Z,22.23
2023-02-15T02:29:26.772Z,20.50
2023-02-15T02:35:31.138Z,19.70
2023-02-15T02:38:11.200Z,20.42
2023-02-15T02:40:55.703Z,20.95
2023-02-15T02:43:34.179Z,20.58
2023-02-15T02:46:14.331Z,18.65
2023-02-15T02:48:41.646Z,20.20
2023-02-15T02:51:08.529Z,20.13
2023-02-15T02:53:35.876Z,19.50
2023-02-15T02:56:40.103Z,20.67
2023-02-15T02:59:21.180Z,20.52
2023-02-15T03:02:13.847Z,20.30
2023-02-15T03:04:48.795Z,17.90
2023-02-15T03:07:24.203Z,18.88
2023-02-15T03:09:54.662Z,19.83
2023-02-15T03:12:37.079Z,19.88
2023-02-15T03:15:21.211Z,20.73
2023-02-15T03:17:58.560Z,17.85
2023-02-15T03:20:32.682Z,17.77
2023-02-15T03:23:13.646Z,19.15
2023-02-15T03:25:47.490Z,19.55
2023-02-15T03:28:23.692Z,17.25
2023-02-15T03:30:59.299Z,19.98
2023-02-15T03:33:29.886Z,18.48
2023-02-15T03:36:11.077Z,18.92
2023-02-15T03:39:01.493Z,19.15
2023-02-15T03:41:38.122Z,20.52
2023-02-15T03:44:20.910Z,19.33
2023-02-15T03:47:01.909Z,19.85
2023-02-15T03:49:47.727Z,19.70
2023-02-15T03:52:18.129Z,19.17
2023-02-15T03:54:48.242Z,18.85
2023-02-15T03:57:45.774Z,20.17
2023-02-15T04:00:40.816Z,19.45
2023-02-15T04:03:11.008Z,18.25
2023-02-15T04:05:39.034Z,18.77
2023-02-15T04:08:06.088Z,19.58
2023-02-15T04:10:51.389Z,18.95
2023-02-15T04:13:18.217Z,17.98
2023-02-15T04:16:03.723Z,18.63
2023-02-15T04:18:54.037Z,18.25
2023-02-15T04:21:41.434Z,20.38
2023-02-15T04:24:28.209Z,18.55
2023-02-15T04:26:56.845Z,19.38
2023-02-15T04:29:25.912Z,19.38
2023-02-15T04:31:55.315Z,19.90
2023-02-15T04:34:22.949Z,18.42
2023-02-15T04:36:51.214Z,19.30
2023-02-15T04:39:20.006Z,18.05
2023-02-15T04:41:48.796Z,20.17
2023-02-15T04:44:16.109Z,20.70
2023-02-15T04:46:42.931Z,18.77
2023-02-15T04:49:10.451Z,19.73
2023-02-15T04:51:38.261Z,18.80
2023-02-15T04:54:05.363Z,19.75
2023-02-15T04:56:34.132Z,18.88
2023-02-15T04:59:01.149Z,19.73
2023-02-15T05:01:28.131Z,19.27
2023-02-15T05:03:55.105Z,19.77
2023-02-15T05:06:22.075Z,18.67
2023-02-15T05:08:49.032Z,20.13
2023-02-15T05:11:15.920Z,19.58
2023-02-15T05:13:42.735Z,20.88
2023-02-15T05:16:09.595Z,19.95
2023-02-15T05:18:36.434Z,19.67
2023-02-15T05:21:03.383Z,21.25
2023-02-15T05:23:30.311Z,20.45
2023-02-15T05:26:15.564Z,18.15
2023-02-15T05:31:20.247Z,18.55
2023-02-15T05:33:47.595Z,15.80
2023-02-15T05:36:15.097Z,17.20
2023-02-15T05:38:43.405Z,20.30
2023-02-15T05:41:11.980Z,19.88
2023-02-15T05:43:39.966Z,21.75
2023-02-15T05:46:07.917Z,20.88
2023-02-15T05:48:35.883Z,18.30
2023-02-15T05:51:14.032Z,20.63
2023-02-15T05:53:41.816Z,20.63
2023-02-15T05:56:13.173Z,17.73
2023-02-15T05:58:42.152Z,18.38
2023-02-15T06:01:16.306Z,20.85
2023-02-15T06:03:43.471Z,20.92
2023-02-15T06:06:10.920Z,21.75
2023-02-15T06:08:39.163Z,18.52
2023-02-15T06:11:07.211Z,21.80
2023-02-15T06:13:38.390Z,19.40
2023-02-15T06:16:07.594Z,18.80
2023-02-15T06:18:35.510Z,17.17
2023-02-15T06:21:02.316Z,18.85
2023-02-15T06:23:29.580Z,20.20
2023-02-15T06:25:56.586Z,19.08
2023-02-15T06:28:23.548Z,22.13
2023-02-15T06:30:50.386Z,21.02
2023-02-15T06:33:17.284Z,19.10
2023-02-15T06:35:44.250Z,19.88
2023-02-15T06:38:11.068Z,20.02
2023-02-15T06:40:37.912Z,19.88
2023-02-15T06:43:05.082Z,18.77
2023-02-15T06:45:31.969Z,21.05
2023-02-15T06:47:58.785Z,21.20
2023-02-15T06:50:25.675Z,19.60
2023-02-15T06:52:59.502Z,18.23
2023-02-15T06:55:27.224Z,21.63
2023-02-15T06:57:54.094Z,16.08
2023-02-15T07:00:23.073Z,21.00
2023-02-15T07:02:56.730Z,21.55
2023-02-15T07:05:24.835Z,22.30
2023-02-15T07:07:51.770Z,14.02
2023-02-15T07:10:18.568Z,14.85
2023-02-15T07:12:46.667Z,18.50
2023-02-15T07:15:19.175Z,20.55
2023-02-15T07:17:46.003Z,20.30
2023-02-15T07:20:18.233Z,17.67
2023-02-15T07:22:45.779Z,15.55
2023-02-15T07:25:14.654Z,22.25
2023-02-15T07:27:45.767Z,13.95
2023-02-15T07:30:18.249Z,18.05
2023-02-15T07:33:05.634Z,16.40
2023-02-15T07:35:33.973Z,20.92
2023-02-15T07:38:01.990Z,20.80
2023-02-15T07:40:28.867Z,22.00
2023-02-15T07:43:00.090Z,18.77
2023-02-15T07:45:27.898Z,20.45
2023-02-15T07:47:54.700Z,15.20
2023-02-15T07:50:21.469Z,22.23
2023-02-15T07:52:48.342Z,18.13
2023-02-15T07:55:15.478Z,20.98
2023-02-15T07:57:48.393Z,21.10
2023-02-15T08:00:17.878Z,19.58
2023-02-15T08:03:13.491Z,20.08
2023-02-15T08:05:48.397Z,22.48
2023-02-15T08:08:30.703Z,20.75
2023-02-15T08:11:20.391Z,22.05
2023-02-15T08:13:55.681Z,20.52
2023-02-15T08:16:37.905Z,21.75
2023-02-15T08:19:16.456Z,23.20
2023-02-15T08:21:50.521Z,24.25
2023-02-15T08:24:21.706Z,20.55
2023-02-15T08:26:50.362Z,21.77
2023-02-15T08:29:20.289Z,24.55
2023-02-15T08:31:47.674Z,23.92
2023-02-15T08:34:19.566Z,21.27
2023-02-15T08:36:47.248Z,22.65
2023-02-15T08:39:16.243Z,23.63
2023-02-15T08:41:46.850Z,23.92
2023-02-15T08:44:17.486Z,23.63
2023-02-15T08:46:47.152Z,24.63
2023-02-15T08:49:19.591Z,19.13
2023-02-15T08:51:48.047Z,22.85
2023-02-15T08:54:18.557Z,17.98
2023-02-15T08:56:46.180Z,20.85
2023-02-15T08:59:20.376Z,18.10
2023-02-15T09:01:49.772Z,20.77
2023-02-15T09:04:17.328Z,22.70
2023-02-15T09:06:48.542Z,20.50
2023-02-15T09:09:17.783Z,19.25
2023-02-15T09:11:48.063Z,20.42
2023-02-15T09:14:25.464Z,20.58
2023-02-15T09:16:54.211Z,22.63
2023-02-15T09:19:24.052Z,21.85
2023-02-15T09:21:51.281Z,25.15
2023-02-15T09:24:19.597Z,21.75
2023-02-15T09:26:49.389Z,19.13
2023-02-15T09:29:19.092Z,23.67
2023-02-15T09:31:51.026Z,22.40
2023-02-15T09:34:22.032Z,23.20
2023-02-15T09:36:50.629Z,22.65
2023-02-15T09:39:26.750Z,23.40
2023-02-15T09:41:54.427Z,23.15
2023-02-15T09:44:42.755Z,22.27
2023-02-15T09:47:37.996Z,22.05
2023-02-15T09:50:21.717Z,21.73
2023-02-15T09:53:45.596Z,22.17
2023-02-15T09:56:38.442Z,21.55
2023-02-15T09:59:34.347Z,20.92
2023-02-15T10:02:39.444Z,21.30
2023-02-15T10:05:25.869Z,21.88
2023-02-15T10:08:32.880Z,22.55
2023-02-15T10:11:36.936Z,20.95
2023-02-15T10:14:41.710Z,22.42
2023-02-15T10:17:33.006Z,15.82
2023-02-15T10:20:23.027Z,19.95
2023-02-15T10:23:08.585Z,21.65
2023-02-15T10:26:05.524Z,22.30
2023-02-15T10:28:47.731Z,15.88
2023-02-15T10:31:35.746Z,22.08
2023-02-15T10:34:45.177Z,16.25
2023-02-15T10:37:45.313Z,21.77
2023-02-15T10:40:33.794Z,20.92
2023-02-15T10:43:18.156Z,17.42
2023-02-15T10:46:11.844Z,17.63
2023-02-15T10:49:11.149Z,18.27
2023-02-15T10:52:10.581Z,18.88
2023-02-15T10:54:51.539Z,18.67
2023-02-15T10:57:45.863Z,18.58
2023-02-15T11:00:40.126Z,17.08
2023-02-15T11:03:24.408Z,15.43
2023-02-15T11:06:17.630Z,19.63
2023-02-15T11:08:51.599Z,18.83
2023-02-15T11:11:36.066Z,20.38
2023-02-15T11:14:55.184Z,17.90
2023-02-15T11:17:47.929Z,16.73
2023-02-15T11:20:31.143Z,20.33
2023-02-15T11:22:59.341Z,18.33
2023-02-15T11:25:37.819Z,18.85
2023-02-15T11:30:53.314Z,18.75
2023-02-15T11:33:30.335Z,20.10
2023-02-15T11:36:10.764Z,18.85
2023-02-15T11:38:40.413Z,18.90
2023-02-15T11:41:14.813Z,15.35
2023-02-15T11:43:53.966Z,17.10
2023-02-15T11:46:22.733Z,19.13
2023-02-15T11:48:50.212Z,18.38
2023-02-15T11:51:24.054Z,15.07
2023-02-15T11:53:52.717Z,18.05
2023-02-15T11:56:24.926Z,18.88
2023-02-15T12:01:44.701Z,19.30
2023-02-15T12:04:34.437Z,19.40
2023-02-15T12:07:23.653Z,18.92
2023-02-15T12:10:15.118Z,15.07
2023-02-15T12:12:42.094Z,18.08
2023-02-15T12:15:12.085Z,11.57
2023-02-15T12:17:57.305Z,15.13
2023-02-15T12:20:33.233Z,19.15
2023-02-15T12:23:16.486Z,20.35
2023-02-15T12:25:58.161Z,20.05
2023-02-15T12:28:40.915Z,16.38
2023-02-15T12:31:37.134Z,17.85
2023-02-15T12:34:16.538Z,18.55
2023-02-15T12:36:55.431Z,19.27
2023-02-15T12:39:33.128Z,17.27
2023-02-15T12:42:16.473Z,14.07
2023-02-15T12:45:20.295Z,17.17
2023-02-15T12:47:48.658Z,18.85
2023-02-15T12:50:26.999Z,16.52
2023-02-15T12:55:36.211Z,16.92
2023-02-15T12:58:24.022Z,18.27
2023-02-15T13:01:15.039Z,14.90
2023-02-15T13:04:15.236Z,13.77
2023-02-15T13:06:52.676Z,17.27
2023-02-15T13:09:36.838Z,13.73
2023-02-15T13:12:28.507Z,13.57
2023-02-15T13:14:57.152Z,18.67
2023-02-15T13:17:35.185Z,15.98
2023-02-15T13:20:11.612Z,19.23
2023-02-15T13:22:45.839Z,13.95
2023-02-15T13:25:30.699Z,20.92
2023-02-15T13:28:04.515Z,17.98
2023-02-15T13:30:37.769Z,19.70
2023-02-15T13:33:15.397Z,19.63
2023-02-15T13:36:31.197Z,14.40
2023-02-15T13:39:08.525Z,16.17
2023-02-15T13:41:48.213Z,16.27
2023-02-15T13:44:39.638Z,15.15
2023-02-15T13:47:23.128Z,17.27
2023-02-15T13:50:20.799Z,14.35
2023-02-15T13:53:06.013Z,17.15
2023-02-15T13:56:03.458Z,19.15
2023-02-15T13:59:12.085Z,16.30
2023-02-15T14:02:20.575Z,13.45
2023-02-15T14:05:32.134Z,17.42
2023-02-15T14:08:29.547Z,15.77
2023-02-15T14:11:07.985Z,18.63
2023-02-15T14:14:05.185Z,17.40
2023-02-15T14:17:04.279Z,19.08
2023-02-15T14:19:51.001Z,17.27
2023-02-15T14:22:45.425Z,12.05
2023-02-15T14:25:52.847Z,16.90
2023-02-15T14:29:15.078Z,16.88
2023-02-15T14:31:49.768Z,18.20
2023-02-15T14:34:40.432Z,19.73
2023-02-15T14:37:10.398Z,19.05
2023-02-15T14:40:01.709Z,17.05
2023-02-15T14:43:02.170Z,16.70
2023-02-15T14:45:50.257Z,17.55
2023-02-15T14:48:46.638Z,18.95
2023-02-15T14:51:43.754Z,14.82
2023-02-15T14:54:18.245Z,18.85
2023-02-15T14:56:47.416Z,18.25
2023-02-15T14:59:19.887Z,19.50
2023-02-15T15:01:59.615Z,19.55
2023-02-15T15:04:36.191Z,20.85
2023-02-15T15:07:13.434Z,20.17
2023-02-15T15:09:44.172Z,17.48
2023-02-15T15:12:41.726Z,20.42
2023-02-15T15:15:33.370Z,19.35
2023-02-15T15:18:09.493Z,20.30
2023-02-15T15:20:50.285Z,16.50
2023-02-15T15:23:19.044Z,19.75
2023-02-15T15:25:56.760Z,27.35
2023-02-15T15:28:35.527Z,15.90
2023-02-15T15:31:35.690Z,18.90
2023-02-15T15:34:26.645Z,19.77
2023-02-15T15:37:34.084Z,19.00
2023-02-15T15:40:49.160Z,18.35
2023-02-15T15:43:41.624Z,19.75
2023-02-15T15:46:40.854Z,16.95
2023-02-15T15:49:21.064Z,17.00
2023-02-15T15:51:49.392Z,18.63
2023-02-15T15:54:27.640Z,18.85
2023-02-15T15:57:01.096Z,16.85
2023-02-15T15:59:32.299Z,16.23
2023-02-15T16:02:16.382Z,17.30
2023-02-15T16:04:48.710Z,17.60
2023-02-15T16:07:27.131Z,21.13
2023-02-15T16:12:40.584Z,19.42
2023-02-15T16:15:16.841Z,19.30
2023-02-15T16:17:48.562Z,19.85
2023-02-15T16:20:30.539Z,17.60
2023-02-15T16:23:08.750Z,20.30
2023-02-15T16:25:56.110Z,18.80
2023-02-15T16:28:23.100Z,19.50
2023-02-15T16:31:10.615Z,20.05
2023-02-15T16:33:43.569Z,20.20
2023-02-15T16:36:26.107Z,20.45
2023-02-15T16:38:52.814Z,20.25
2023-02-15T16:41:28.216Z,20.05
2023-02-15T16:44:16.230Z,18.27
2023-02-15T16:46:50.293Z,17.98
2023-02-15T16:49:28.540Z,21.27
2023-02-15T16:52:06.622Z,18.85
2023-02-15T16:54:35.758Z,20.55
2023-02-15T16:57:03.410Z,18.98
2023-02-15T16:59:44.316Z,16.58
2023-02-15T17:02:40.113Z,22.95
2023-02-15T17:05:20.765Z,22.15
2023-02-15T17:08:05.420Z,21.50
2023-02-15T17:10:42.700Z,18.05
2023-02-15T17:13:18.189Z,19.15
2023-02-15T17:16:06.372Z,19.13
2023-02-15T17:18:47.212Z,19.15
2023-02-15T17:21:28.765Z,19.08
2023-02-15T17:24:05.120Z,20.10
2023-02-15T17:26:38.546Z,20.33
2023-02-15T17:29:36.191Z,19.63
2023-02-15T17:32:04.572Z,18.75
2023-02-15T17:34:48.906Z,21.15
2023-02-15T17:37:38.750Z,20.52
2023-02-15T17:40:33.595Z,21.02
2023-02-15T17:43:01.552Z,20.70
2023-02-15T17:45:38.442Z,20.42
2023-02-15T17:48:07.125Z,22.13
2023-02-15T17:50:34.236Z,21.27
2023-02-15T17:53:02.117Z,18.95
2023-02-15T17:55:35.609Z,20.05
2023-02-15T17:58:07.153Z,21.05
2023-02-15T18:00:58.919Z,22.33
2023-02-15T18:03:58.930Z,22.65
2023-02-15T18:06:44.523Z,19.83
2023-02-15T18:09:36.466Z,20.20
2023-02-15T18:12:23.589Z,19.83
2023-02-15T18:14:51.893Z,21.17
2023-02-15T18:17:19.355Z,13.70
2023-02-15T18:19:47.730Z,22.08
2023-02-15T18:22:19.626Z,22.80
2023-02-15T18:24:50.116Z,21.67
2023-02-15T18:27:17.241Z,21.60
2023-02-15T18:29:44.158Z,22.20
2023-02-15T18:32:20.285Z,22.13
2023-02-15T18:34:49.465Z,22.55
2023-02-15T18:37:21.688Z,21.38
2023-02-15T18:42:28.124Z,20.42
2023-02-15T18:47:26.070Z,23.15
2023-02-15T18:49:53.145Z,22.77
2023-02-15T18:52:32.551Z,22.08
2023-02-15T18:55:15.986Z,24.75
2023-02-15T18:57:45.089Z,26.30
2023-02-15T19:00:25.774Z,28.02
2023-02-15T19:02:54.020Z,17.08
2023-02-15T19:05:22.787Z,23.30
2023-02-15T19:07:52.038Z,23.15
2023-02-15T19:10:24.489Z,25.02
2023-02-15T19:12:53.023Z,25.98
2023-02-15T19:15:30.368Z,27.23
2023-02-15T19:17:57.345Z,28.63
2023-02-15T19:20:37.025Z,15.98
2023-02-15T19:23:11.825Z,20.95
2023-02-15T19:25:40.702Z,24.98
2023-02-15T19:28:21.881Z,25.65
2023-02-15T19:30:48.649Z,24.65
2023-02-15T19:33:20.934Z,25.05
2023-02-15T19:38:26.816Z,25.98
2023-02-15T19:41:01.586Z,20.80
2023-02-15T19:43:30.105Z,22.33
2023-02-15T19:45:57.013Z,25.23
2023-02-15T19:48:24.855Z,25.10
2023-02-15T19:50:52.826Z,22.70
2023-02-15T19:53:28.278Z,20.35
2023-02-15T19:55:55.734Z,24.45
2023-02-15T19:58:22.976Z,24.25
2023-02-15T20:00:51.622Z,28.10
2023-02-15T20:03:18.714Z,27.38
2023-02-15T20:05:45.724Z,22.17
2023-02-15T20:08:22.745Z,17.98
2023-02-15T20:10:49.900Z,22.65
2023-02-15T20:13:19.977Z,22.08
2023-02-15T20:15:51.358Z,26.17
2023-02-15T20:18:20.431Z,21.77
2023-02-15T20:20:53.538Z,19.00
2023-02-15T20:23:22.702Z,26.33
2023-02-15T20:25:50.440Z,24.33
2023-02-15T20:28:24.504Z,25.80
2023-02-15T20:30:52.213Z,21.38
2023-02-15T20:33:20.955Z,24.30
2023-02-15T20:35:50.343Z,20.77
2023-02-15T20:38:35.332Z,20.77
2023-02-15T20:41:20.682Z,26.27
2023-02-15T20:43:47.687Z,21.73
2023-02-15T20:46:14.511Z,22.10
2023-02-15T20:48:41.322Z,26.20
2023-02-15T20:51:18.543Z,25.75
2023-02-15T20:53:46.775Z,21.08
2023-02-15T20:56:22.931Z,28.90
2023-02-15T20:58:51.748Z,22.50
2023-02-15T21:01:22.401Z,25.42
2023-02-15T21:03:49.628Z,25.02
2023-02-15T21:06:17.111Z,23.88
2023-02-15T21:08:44.805Z,24.17
2023-02-15T21:11:23.100Z,19.80
2023-02-15T21:13:51.188Z,19.60
2023-02-15T21:16:18.293Z,25.13
2023-02-15T21:18:45.154Z,25.45
2023-02-15T21:21:23.753Z,24.60
2023-02-15T21:26:22.715Z,26.35
2023-02-15T21:28:50.479Z,27.00
2023-02-15T21:31:25.579Z,29.55
2023-02-15T21:33:53.386Z,23.50
2023-02-15T21:36:25.350Z,26.30
2023-02-15T21:38:53.823Z,30.98
2023-02-15T21:41:42.958Z,27.05
2023-02-15T21:44:41.996Z,26.35
2023-02-15T21:47:50.442Z,24.70
2023-02-15T21:50:43.500Z,20.38
2023-02-15T21:53:19.932Z,23.52
2023-02-15T21:55:46.682Z,24.45
2023-02-15T21:58:24.490Z,26.15
2023-02-15T22:00:55.218Z,25.55
2023-02-15T22:03:24.741Z,22.73
2023-02-15T22:05:52.064Z,20.23
2023-02-15T22:08:19.900Z,20.63
2023-02-15T22:10:48.154Z,23.40
2023-02-15T22:13:23.061Z,27.83
2023-02-15T22:15:49.936Z,26.00
2023-02-15T22:18:32.257Z,25.00
2023-02-15T22:21:02.213Z,25.10
2023-02-15T22:23:29.339Z,27.58
2023-02-15T22:26:05.583Z,27.08
2023-02-15T22:28:40.035Z,25.23
2023-02-15T22:31:15.531Z,27.05
2023-02-15T22:33:44.738Z,24.80
2023-02-15T22:36:29.265Z,25.92
2023-02-15T22:38:58.342Z,26.40
2023-02-15T22:41:30.433Z,25.30
2023-02-15T22:43:58.017Z,25.40
2023-02-15T22:46:26.076Z,25.55
2023-02-15T22:48:53.431Z,23.67
2023-02-15T22:51:23.619Z,26.48
2023-02-15T22:53:54.541Z,25.17
2023-02-15T22:56:53.241Z,26.98
2023-02-15T22:59:28.404Z,25.55
2023-02-15T23:01:58.598Z,24.98
2023-02-15T23:04:29.084Z,24.98
2023-02-15T23:07:00.628Z,26.20
2023-02-15T23:09:27.561Z,21.88
2023-02-15T23:11:54.844Z,27.45
2023-02-15T23:14:35.207Z,25.45
2023-02-15T23:17:02.749Z,27.38
2023-02-15T23:19:29.529Z,25.45
2023-02-15T23:21:56.544Z,21.25
2023-02-15T23:24:34.536Z,19.70
2023-02-15T23:27:19.663Z,23.08
2023-02-15T23:29:46.974Z,27.45
2023-02-15T23:32:15.145Z,22.98
2023-02-15T23:34:43.238Z,18.35
2023-02-15T23:37:14.494Z,25.60
2023-02-15T23:39:59.929Z,27.02
2023-02-15T23:42:31.771Z,26.45
2023-02-15T23:44:58.674Z,25.30
2023-02-15T23:47:54.191Z,18.88
2023-02-15T23:50:27.448Z,23.27
2023-02-15T23:52:55.998Z,20.45
2023-02-15T23:55:28.310Z,27.27
